Ménara, Morocco

9:35 AM WEST on September 27, 2016 (GMT +0100)
Route Douar Abiad | | Change Station

Elev 1469 ft 31.67 °N, 7.94 °W | Updated 4 minutes ago

Clear
Clear
76.3 °F
Feels Like 78 °F
N
1.2
Wind Variable Wind from North
Gusts 3.7 mph

Today
High -- | Low -- °F
--% Chance of Precip.
Yesterday
High -- | Low -- °F
Precip. -- in
Pressure 30.06 in
Visibility 6.2 miles
Clouds
Heat Index 78 °F
Dew Point 62 °F
Humidity 60%
Rainfall 0.00 in
Snow Depth Not available.
7:23 AM 7:21 PM
Waning Crescent, 13% visible
METAR GMMX 270830Z 02003KT 330V050 9999 NSC 21/14 Q1018 NOSIG
Pressure 30.06 in
Visibility 6.2 miles
Clouds
Heat Index 78 °F
Dew Point 62 °F
Humidity 60%
Rainfall 0.00 in
Snow Depth Not available.
7:23 AM 7:21 PM
Waning Crescent, 13% visible
METAR GMMX 270830Z 02003KT 330V050 9999 NSC 21/14 Q1018 NOSIG

10-Day Weather Forecast

No radar image for this location.
×

Almanac

Astronomy

Sep. 27, 2016 Rise Set
Actual Time
Civil Twilight
Nautical Twilight
Astronomical Twilight
Moon
Length of Visible Light
Length of Day
Tomorrow will be .
, % of the Moon is Illuminated

Today's Extremes

Country Highs Country Lows

Community

WunderPhotos

Upload Photos

1,942,040 photos uploaded!

WunderBlog® & News

Nearby

Air Quality

  Air Quality AQ Index Pollutant
Not available.

Snow Depth

Station Depth Elevation

Earthquake Activity

City Distance Mag. Time & Date
Minimum magnitude displayed is 2.5.

Coastal Water Temperatures

Place Temperature

Stations

Nearby Weather Stations

Station Location Temp. Windchill Dew Point Humidity Wind Precip. Elev Updated Type